sensor_id;sensor_type;location;lat;lon;timestamp;P1;durP1;ratioP1;P2;durP2;ratioP2
28481;SDS011;15703;49.588;6.260;2023-08-12T00:00:28;7.72;;;3.95;;
28481;SDS011;15703;49.588;6.260;2023-08-12T00:02:51;6.35;;;3.50;;
28481;SDS011;15703;49.588;6.260;2023-08-12T00:05:13;7.30;;;3.55;;
28481;SDS011;15703;49.588;6.260;2023-08-12T00:07:36;4.03;;;3.20;;
28481;SDS011;15703;49.588;6.260;2023-08-12T00:09:59;5.82;;;3.40;;
28481;SDS011;15703;49.588;6.260;2023-08-12T00:12:22;4.55;;;2.60;;
28481;SDS011;15703;49.588;6.260;2023-08-12T00:14:44;3.53;;;2.97;;
28481;SDS011;15703;49.588;6.260;2023-08-12T00:17:06;4.78;;;3.55;;
28481;SDS011;15703;49.588;6.260;2023-08-12T00:19:29;4.97;;;3.15;;
28481;SDS011;15703;49.588;6.260;2023-08-12T00:21:51;5.20;;;3.42;;
28481;SDS011;15703;49.588;6.260;2023-08-12T00:24:14;5.63;;;3.40;;
28481;SDS011;15703;49.588;6.260;2023-08-12T00:26:37;4.57;;;3.53;;
28481;SDS011;15703;49.588;6.260;2023-08-12T00:29:00;6.30;;;3.25;;
28481;SDS011;15703;49.588;6.260;2023-08-12T00:31:22;3.67;;;3.35;;
28481;SDS011;15703;49.588;6.260;2023-08-12T00:33:45;3.92;;;3.40;;
28481;SDS011;15703;49.588;6.260;2023-08-12T00:36:07;4.75;;;3.50;;
28481;SDS011;15703;49.588;6.260;2023-08-12T00:38:29;5.68;;;3.35;;
28481;SDS011;15703;49.588;6.260;2023-08-12T00:40:51;5.20;;;3.70;;
28481;SDS011;15703;49.588;6.260;2023-08-12T00:43:14;7.25;;;3.80;;
28481;SDS011;15703;49.588;6.260;2023-08-12T00:45:36;3.55;;;3.25;;
28481;SDS011;15703;49.588;6.260;2023-08-12T00:47:58;4.43;;;3.35;;
28481;SDS011;15703;49.588;6.260;2023-08-12T00:50:21;3.80;;;3.38;;
28481;SDS011;15703;49.588;6.260;2023-08-12T00:52:43;5.95;;;3.60;;
28481;SDS011;15703;49.588;6.260;2023-08-12T00:55:07;6.93;;;3.85;;
28481;SDS011;15703;49.588;6.260;2023-08-12T00:57:29;3.70;;;3.35;;
28481;SDS011;15703;49.588;6.260;2023-08-12T00:59:52;4.75;;;3.38;;
28481;SDS011;15703;49.588;6.260;2023-08-12T01:02:15;4.38;;;3.25;;
28481;SDS011;15703;49.588;6.260;2023-08-12T01:04:37;5.00;;;3.60;;
28481;SDS011;15703;49.588;6.260;2023-08-12T01:06:59;4.68;;;3.05;;
28481;SDS011;15703;49.588;6.260;2023-08-12T01:09:22;5.35;;;3.38;;
28481;SDS011;15703;49.588;6.260;2023-08-12T01:14:27;5.22;;;3.38;;
28481;SDS011;15703;49.588;6.260;2023-08-12T01:16:51;5.32;;;3.78;;
28481;SDS011;15703;49.588;6.260;2023-08-12T01:21:54;5.45;;;3.25;;
28481;SDS011;15703;49.588;6.260;2023-08-12T01:24:19;6.07;;;2.80;;
28481;SDS011;15703;49.588;6.260;2023-08-12T01:26:41;4.10;;;3.25;;
28481;SDS011;15703;49.588;6.260;2023-08-12T01:29:03;4.70;;;2.85;;
28481;SDS011;15703;49.588;6.260;2023-08-12T01:33:53;5.70;;;3.65;;
28481;SDS011;15703;49.588;6.260;2023-08-12T01:36:18;4.60;;;3.22;;
28481;SDS011;15703;49.588;6.260;2023-08-12T01:38:44;5.72;;;4.07;;
28481;SDS011;15703;49.588;6.260;2023-08-12T01:41:11;4.03;;;3.60;;
28481;SDS011;15703;49.588;6.260;2023-08-12T01:43:34;5.88;;;3.90;;
28481;SDS011;15703;49.588;6.260;2023-08-12T01:45:57;4.38;;;3.83;;
28481;SDS011;15703;49.588;6.260;2023-08-12T01:48:19;5.95;;;4.05;;
28481;SDS011;15703;49.588;6.260;2023-08-12T01:50:44;6.60;;;4.32;;
28481;SDS011;15703;49.588;6.260;2023-08-12T01:53:09;5.25;;;4.75;;
28481;SDS011;15703;49.588;6.260;2023-08-12T01:55:31;5.13;;;4.18;;
28481;SDS011;15703;49.588;6.260;2023-08-12T01:57:53;7.68;;;4.97;;
28481;SDS011;15703;49.588;6.260;2023-08-12T02:00:16;5.55;;;4.78;;
28481;SDS011;15703;49.588;6.260;2023-08-12T02:02:38;4.68;;;4.15;;
28481;SDS011;15703;49.588;6.260;2023-08-12T02:05:01;7.72;;;4.55;;
28481;SDS011;15703;49.588;6.260;2023-08-12T02:07:23;8.07;;;4.30;;
28481;SDS011;15703;49.588;6.260;2023-08-12T02:09:45;5.05;;;3.88;;
28481;SDS011;15703;49.588;6.260;2023-08-12T02:12:08;5.47;;;4.07;;
28481;SDS011;15703;49.588;6.260;2023-08-12T02:14:30;6.75;;;4.18;;
28481;SDS011;15703;49.588;6.260;2023-08-12T02:16:52;4.13;;;3.70;;
28481;SDS011;15703;49.588;6.260;2023-08-12T02:19:15;6.43;;;4.43;;
28481;SDS011;15703;49.588;6.260;2023-08-12T02:21:37;4.55;;;3.50;;
28481;SDS011;15703;49.588;6.260;2023-08-12T02:24:00;3.97;;;3.58;;
28481;SDS011;15703;49.588;6.260;2023-08-12T02:26:22;5.65;;;3.90;;
28481;SDS011;15703;49.588;6.260;2023-08-12T02:28:44;5.82;;;5.05;;
28481;SDS011;15703;49.588;6.260;2023-08-12T02:31:06;5.05;;;4.60;;
28481;SDS011;15703;49.588;6.260;2023-08-12T02:33:29;7.18;;;4.55;;
28481;SDS011;15703;49.588;6.260;2023-08-12T02:35:54;6.75;;;5.50;;
28481;SDS011;15703;49.588;6.260;2023-08-12T02:38:18;16.50;;;6.28;;
28481;SDS011;15703;49.588;6.260;2023-08-12T02:40:41;9.25;;;5.55;;
28481;SDS011;15703;49.588;6.260;2023-08-12T02:43:04;14.80;;;6.35;;
28481;SDS011;15703;49.588;6.260;2023-08-12T02:45:26;14.23;;;6.28;;
28481;SDS011;15703;49.588;6.260;2023-08-12T02:47:50;5.53;;;5.03;;
28481;SDS011;15703;49.588;6.260;2023-08-12T02:50:12;6.15;;;5.15;;
28481;SDS011;15703;49.588;6.260;2023-08-12T02:52:35;6.80;;;5.80;;
28481;SDS011;15703;49.588;6.260;2023-08-12T02:54:57;8.25;;;5.88;;
28481;SDS011;15703;49.588;6.260;2023-08-12T02:57:19;8.73;;;6.15;;
28481;SDS011;15703;49.588;6.260;2023-08-12T02:59:41;6.55;;;5.00;;
28481;SDS011;15703;49.588;6.260;2023-08-12T03:02:04;6.13;;;5.18;;
28481;SDS011;15703;49.588;6.260;2023-08-12T03:04:26;9.45;;;5.18;;
28481;SDS011;15703;49.588;6.260;2023-08-12T03:06:48;6.32;;;5.82;;
28481;SDS011;15703;49.588;6.260;2023-08-12T03:09:11;5.07;;;4.60;;
28481;SDS011;15703;49.588;6.260;2023-08-12T03:11:36;5.07;;;4.57;;
28481;SDS011;15703;49.588;6.260;2023-08-12T03:14:01;4.78;;;4.18;;
28481;SDS011;15703;49.588;6.260;2023-08-12T03:16:24;7.00;;;5.03;;
28481;SDS011;15703;49.588;6.260;2023-08-12T03:18:46;7.63;;;5.63;;
28481;SDS011;15703;49.588;6.260;2023-08-12T03:21:09;7.03;;;5.32;;
28481;SDS011;15703;49.588;6.260;2023-08-12T03:23:32;4.95;;;4.55;;
28481;SDS011;15703;49.588;6.260;2023-08-12T03:25:54;6.78;;;4.63;;
28481;SDS011;15703;49.588;6.260;2023-08-12T03:28:17;5.30;;;4.80;;
28481;SDS011;15703;49.588;6.260;2023-08-12T03:30:39;6.63;;;5.53;;
28481;SDS011;15703;49.588;6.260;2023-08-12T03:33:02;10.30;;;5.95;;
28481;SDS011;15703;49.588;6.260;2023-08-12T03:35:27;12.43;;;5.63;;
28481;SDS011;15703;49.588;6.260;2023-08-12T03:37:50;9.85;;;5.50;;
28481;SDS011;15703;49.588;6.260;2023-08-12T03:40:14;10.25;;;5.78;;
28481;SDS011;15703;49.588;6.260;2023-08-12T03:42:36;5.30;;;4.80;;
28481;SDS011;15703;49.588;6.260;2023-08-12T03:45:00;11.23;;;5.65;;
28481;SDS011;15703;49.588;6.260;2023-08-12T03:47:22;5.40;;;4.72;;
28481;SDS011;15703;49.588;6.260;2023-08-12T03:49:46;7.28;;;4.82;;
28481;SDS011;15703;49.588;6.260;2023-08-12T03:52:08;4.65;;;4.25;;
28481;SDS011;15703;49.588;6.260;2023-08-12T03:54:31;5.47;;;4.63;;
28481;SDS011;15703;49.588;6.260;2023-08-12T03:56:54;5.13;;;4.72;;
28481;SDS011;15703;49.588;6.260;2023-08-12T03:59:17;5.15;;;4.75;;
28481;SDS011;15703;49.588;6.260;2023-08-12T04:01:40;7.78;;;4.43;;
28481;SDS011;15703;49.588;6.260;2023-08-12T04:04:02;5.13;;;4.10;;
28481;SDS011;15703;49.588;6.260;2023-08-12T04:06:24;4.45;;;4.05;;
28481;SDS011;15703;49.588;6.260;2023-08-12T04:08:46;4.93;;;4.47;;
28481;SDS011;15703;49.588;6.260;2023-08-12T04:11:09;6.88;;;4.70;;
28481;SDS011;15703;49.588;6.260;2023-08-12T04:13:34;4.55;;;4.07;;
28481;SDS011;15703;49.588;6.260;2023-08-12T04:15:56;5.05;;;4.03;;
28481;SDS011;15703;49.588;6.260;2023-08-12T04:18:19;4.38;;;3.97;;
28481;SDS011;15703;49.588;6.260;2023-08-12T04:20:44;4.53;;;4.10;;
28481;SDS011;15703;49.588;6.260;2023-08-12T04:23:07;5.47;;;4.43;;
28481;SDS011;15703;49.588;6.260;2023-08-12T04:25:29;5.22;;;4.55;;
28481;SDS011;15703;49.588;6.260;2023-08-12T04:27:52;6.32;;;5.18;;
28481;SDS011;15703;49.588;6.260;2023-08-12T04:30:16;5.70;;;4.60;;
28481;SDS011;15703;49.588;6.260;2023-08-12T04:32:38;5.80;;;4.43;;
28481;SDS011;15703;49.588;6.260;2023-08-12T04:35:02;6.03;;;5.05;;
28481;SDS011;15703;49.588;6.260;2023-08-12T04:37:24;8.02;;;5.10;;
28481;SDS011;15703;49.588;6.260;2023-08-12T04:39:47;6.07;;;5.13;;
28481;SDS011;15703;49.588;6.260;2023-08-12T04:42:10;5.20;;;4.40;;
28481;SDS011;15703;49.588;6.260;2023-08-12T04:44:33;5.35;;;4.82;;
28481;SDS011;15703;49.588;6.260;2023-08-12T04:46:55;5.63;;;4.85;;
28481;SDS011;15703;49.588;6.260;2023-08-12T04:49:18;4.97;;;4.47;;
28481;SDS011;15703;49.588;6.260;2023-08-12T04:51:42;6.45;;;5.22;;
28481;SDS011;15703;49.588;6.260;2023-08-12T04:54:04;6.05;;;4.93;;
28481;SDS011;15703;49.588;6.260;2023-08-12T04:56:26;5.75;;;4.40;;
28481;SDS011;15703;49.588;6.260;2023-08-12T04:58:50;5.85;;;4.70;;
28481;SDS011;15703;49.588;6.260;2023-08-12T05:01:13;8.68;;;4.63;;
28481;SDS011;15703;49.588;6.260;2023-08-12T05:03:36;4.82;;;4.13;;
28481;SDS011;15703;49.588;6.260;2023-08-12T05:05:59;5.45;;;4.28;;
28481;SDS011;15703;49.588;6.260;2023-08-12T05:08:21;4.78;;;4.28;;
28481;SDS011;15703;49.588;6.260;2023-08-12T05:10:46;6.13;;;4.22;;
28481;SDS011;15703;49.588;6.260;2023-08-12T05:13:09;4.53;;;4.13;;
28481;SDS011;15703;49.588;6.260;2023-08-12T05:15:32;7.03;;;4.25;;
28481;SDS011;15703;49.588;6.260;2023-08-12T05:17:54;7.00;;;4.45;;
28481;SDS011;15703;49.588;6.260;2023-08-12T05:20:17;4.60;;;3.88;;
28481;SDS011;15703;49.588;6.260;2023-08-12T05:22:40;4.82;;;4.07;;
28481;SDS011;15703;49.588;6.260;2023-08-12T05:25:03;6.63;;;4.93;;
28481;SDS011;15703;49.588;6.260;2023-08-12T05:27:25;7.65;;;4.85;;
28481;SDS011;15703;49.588;6.260;2023-08-12T05:29:47;8.73;;;4.45;;
28481;SDS011;15703;49.588;6.260;2023-08-12T05:32:10;5.75;;;4.30;;
28481;SDS011;15703;49.588;6.260;2023-08-12T05:34:32;5.63;;;3.95;;
28481;SDS011;15703;49.588;6.260;2023-08-12T05:36:55;4.32;;;4.03;;
28481;SDS011;15703;49.588;6.260;2023-08-12T05:39:17;5.93;;;4.07;;
28481;SDS011;15703;49.588;6.260;2023-08-12T05:41:39;6.18;;;4.50;;
28481;SDS011;15703;49.588;6.260;2023-08-12T05:44:02;3.90;;;3.47;;
28481;SDS011;15703;49.588;6.260;2023-08-12T05:46:24;3.58;;;3.13;;
28481;SDS011;15703;49.588;6.260;2023-08-12T05:48:47;5.82;;;3.95;;
28481;SDS011;15703;49.588;6.260;2023-08-12T05:51:09;6.47;;;3.58;;
28481;SDS011;15703;49.588;6.260;2023-08-12T05:53:31;5.68;;;3.45;;
28481;SDS011;15703;49.588;6.260;2023-08-12T05:55:56;3.42;;;3.10;;
28481;SDS011;15703;49.588;6.260;2023-08-12T05:58:19;4.45;;;3.30;;
28481;SDS011;15703;49.588;6.260;2023-08-12T06:00:41;5.68;;;2.92;;
28481;SDS011;15703;49.588;6.260;2023-08-12T06:03:06;3.78;;;3.28;;
28481;SDS011;15703;49.588;6.260;2023-08-12T06:05:29;3.45;;;3.15;;
28481;SDS011;15703;49.588;6.260;2023-08-12T06:07:51;8.07;;;3.80;;
28481;SDS011;15703;49.588;6.260;2023-08-12T06:10:13;4.13;;;3.08;;
28481;SDS011;15703;49.588;6.260;2023-08-12T06:12:36;4.72;;;3.83;;
28481;SDS011;15703;49.588;6.260;2023-08-12T06:14:58;4.28;;;2.85;;
28481;SDS011;15703;49.588;6.260;2023-08-12T06:17:22;5.03;;;3.60;;
28481;SDS011;15703;49.588;6.260;2023-08-12T06:19:44;6.10;;;3.58;;
28481;SDS011;15703;49.588;6.260;2023-08-12T06:22:07;5.47;;;3.75;;
28481;SDS011;15703;49.588;6.260;2023-08-12T06:24:29;4.85;;;4.10;;
28481;SDS011;15703;49.588;6.260;2023-08-12T06:26:52;5.50;;;4.70;;
28481;SDS011;15703;49.588;6.260;2023-08-12T06:29:15;7.40;;;5.18;;
28481;SDS011;15703;49.588;6.260;2023-08-12T06:31:37;8.48;;;5.60;;
28481;SDS011;15703;49.588;6.260;2023-08-12T06:33:59;9.50;;;5.72;;
28481;SDS011;15703;49.588;6.260;2023-08-12T06:36:22;6.97;;;5.55;;
28481;SDS011;15703;49.588;6.260;2023-08-12T06:38:44;6.82;;;6.10;;
28481;SDS011;15703;49.588;6.260;2023-08-12T06:41:07;8.45;;;6.80;;
28481;SDS011;15703;49.588;6.260;2023-08-12T06:43:29;8.35;;;7.45;;
28481;SDS011;15703;49.588;6.260;2023-08-12T06:45:51;8.05;;;7.25;;
28481;SDS011;15703;49.588;6.260;2023-08-12T06:48:14;9.32;;;8.23;;
28481;SDS011;15703;49.588;6.260;2023-08-12T06:50:39;9.57;;;8.43;;
28481;SDS011;15703;49.588;6.260;2023-08-12T06:53:01;11.55;;;9.25;;
28481;SDS011;15703;49.588;6.260;2023-08-12T06:55:24;10.60;;;8.85;;
28481;SDS011;15703;49.588;6.260;2023-08-12T06:57:46;11.63;;;10.43;;
28481;SDS011;15703;49.588;6.260;2023-08-12T07:00:11;10.77;;;9.70;;
28481;SDS011;15703;49.588;6.260;2023-08-12T07:02:34;13.70;;;10.48;;
28481;SDS011;15703;49.588;6.260;2023-08-12T07:04:56;10.57;;;9.02;;
28481;SDS011;15703;49.588;6.260;2023-08-12T07:07:19;12.90;;;10.20;;
28481;SDS011;15703;49.588;6.260;2023-08-12T07:09:41;11.85;;;9.77;;
28481;SDS011;15703;49.588;6.260;2023-08-12T07:12:03;14.68;;;10.32;;
28481;SDS011;15703;49.588;6.260;2023-08-12T07:14:26;12.35;;;8.40;;
28481;SDS011;15703;49.588;6.260;2023-08-12T07:16:49;14.60;;;9.18;;
28481;SDS011;15703;49.588;6.260;2023-08-12T07:19:11;11.20;;;8.70;;
28481;SDS011;15703;49.588;6.260;2023-08-12T07:21:37;11.55;;;8.30;;
28481;SDS011;15703;49.588;6.260;2023-08-12T07:23:59;11.07;;;8.50;;
28481;SDS011;15703;49.588;6.260;2023-08-12T07:26:24;10.73;;;7.85;;
28481;SDS011;15703;49.588;6.260;2023-08-12T07:28:48;9.13;;;6.70;;
28481;SDS011;15703;49.588;6.260;2023-08-12T07:31:11;9.13;;;6.88;;
28481;SDS011;15703;49.588;6.260;2023-08-12T07:33:34;8.73;;;7.30;;
28481;SDS011;15703;49.588;6.260;2023-08-12T07:35:56;10.27;;;8.13;;
28481;SDS011;15703;49.588;6.260;2023-08-12T07:38:18;11.95;;;8.02;;
28481;SDS011;15703;49.588;6.260;2023-08-12T07:40:41;10.15;;;7.70;;
28481;SDS011;15703;49.588;6.260;2023-08-12T07:43:03;10.52;;;8.20;;
28481;SDS011;15703;49.588;6.260;2023-08-12T07:45:26;11.95;;;8.57;;
28481;SDS011;15703;49.588;6.260;2023-08-12T07:47:49;11.57;;;8.25;;
28481;SDS011;15703;49.588;6.260;2023-08-12T07:50:11;9.27;;;8.25;;
28481;SDS011;15703;49.588;6.260;2023-08-12T07:52:34;11.32;;;8.52;;
28481;SDS011;15703;49.588;6.260;2023-08-12T07:54:56;10.48;;;8.15;;
28481;SDS011;15703;49.588;6.260;2023-08-12T07:57:19;10.55;;;7.38;;
28481;SDS011;15703;49.588;6.260;2023-08-12T07:59:45;9.88;;;8.30;;
28481;SDS011;15703;49.588;6.260;2023-08-12T08:02:07;10.63;;;8.65;;
28481;SDS011;15703;49.588;6.260;2023-08-12T08:04:29;11.65;;;8.75;;
28481;SDS011;15703;49.588;6.260;2023-08-12T08:06:52;10.57;;;8.60;;
28481;SDS011;15703;49.588;6.260;2023-08-12T08:09:14;9.07;;;7.65;;
28481;SDS011;15703;49.588;6.260;2023-08-12T08:11:37;9.98;;;8.25;;
28481;SDS011;15703;49.588;6.260;2023-08-12T08:13:59;9.43;;;7.32;;
28481;SDS011;15703;49.588;6.260;2023-08-12T08:16:21;8.70;;;7.15;;
28481;SDS011;15703;49.588;6.260;2023-08-12T08:18:45;8.00;;;6.35;;
28481;SDS011;15703;49.588;6.260;2023-08-12T08:21:07;7.97;;;5.85;;
28481;SDS011;15703;49.588;6.260;2023-08-12T08:23:30;7.60;;;5.35;;
28481;SDS011;15703;49.588;6.260;2023-08-12T08:25:52;7.47;;;5.35;;
28481;SDS011;15703;49.588;6.260;2023-08-12T08:28:15;9.10;;;5.60;;
28481;SDS011;15703;49.588;6.260;2023-08-12T08:30:37;6.45;;;4.95;;
28481;SDS011;15703;49.588;6.260;2023-08-12T08:32:59;6.20;;;4.75;;
28481;SDS011;15703;49.588;6.260;2023-08-12T08:35:22;5.97;;;4.55;;
28481;SDS011;15703;49.588;6.260;2023-08-12T08:37:44;8.18;;;4.78;;
28481;SDS011;15703;49.588;6.260;2023-08-12T08:40:07;6.38;;;4.85;;
28481;SDS011;15703;49.588;6.260;2023-08-12T08:42:29;7.10;;;4.20;;
28481;SDS011;15703;49.588;6.260;2023-08-12T08:44:52;6.03;;;4.38;;
28481;SDS011;15703;49.588;6.260;2023-08-12T08:47:15;7.15;;;4.68;;
28481;SDS011;15703;49.588;6.260;2023-08-12T08:49:39;7.82;;;4.70;;
28481;SDS011;15703;49.588;6.260;2023-08-12T08:52:02;7.53;;;4.35;;
28481;SDS011;15703;49.588;6.260;2023-08-12T08:54:24;7.45;;;3.95;;
28481;SDS011;15703;49.588;6.260;2023-08-12T08:56:48;6.85;;;3.72;;
28481;SDS011;15703;49.588;6.260;2023-08-12T08:59:25;5.50;;;3.53;;
28481;SDS011;15703;49.588;6.260;2023-08-12T09:01:47;5.88;;;2.90;;
28481;SDS011;15703;49.588;6.260;2023-08-12T09:04:13;5.22;;;3.20;;
28481;SDS011;15703;49.588;6.260;2023-08-12T09:06:36;3.75;;;2.70;;
28481;SDS011;15703;49.588;6.260;2023-08-12T09:08:59;3.67;;;2.50;;
28481;SDS011;15703;49.588;6.260;2023-08-12T09:11:22;3.58;;;2.22;;
28481;SDS011;15703;49.588;6.260;2023-08-12T09:13:45;4.68;;;2.78;;
28481;SDS011;15703;49.588;6.260;2023-08-12T09:16:08;4.00;;;3.00;;
28481;SDS011;15703;49.588;6.260;2023-08-12T09:18:30;4.85;;;2.63;;
28481;SDS011;15703;49.588;6.260;2023-08-12T09:20:53;4.05;;;2.53;;
28481;SDS011;15703;49.588;6.260;2023-08-12T09:23:15;2.67;;;2.40;;
28481;SDS011;15703;49.588;6.260;2023-08-12T09:25:42;3.65;;;2.67;;
28481;SDS011;15703;49.588;6.260;2023-08-12T09:28:07;2.38;;;2.13;;
28481;SDS011;15703;49.588;6.260;2023-08-12T09:30:31;5.15;;;2.78;;
28481;SDS011;15703;49.588;6.260;2023-08-12T09:33:01;3.30;;;2.75;;
28481;SDS011;15703;49.588;6.260;2023-08-12T09:35:30;4.30;;;2.65;;
28481;SDS011;15703;49.588;6.260;2023-08-12T09:37:58;4.28;;;2.65;;
28481;SDS011;15703;49.588;6.260;2023-08-12T09:40:20;4.20;;;2.90;;
28481;SDS011;15703;49.588;6.260;2023-08-12T09:42:44;3.97;;;2.65;;
28481;SDS011;15703;49.588;6.260;2023-08-12T09:45:07;4.93;;;3.30;;
28481;SDS011;15703;49.588;6.260;2023-08-12T09:47:30;7.25;;;3.42;;
28481;SDS011;15703;49.588;6.260;2023-08-12T09:49:52;4.63;;;3.42;;
28481;SDS011;15703;49.588;6.260;2023-08-12T09:52:15;11.70;;;4.10;;
28481;SDS011;15703;49.588;6.260;2023-08-12T09:54:39;6.05;;;4.55;;
28481;SDS011;15703;49.588;6.260;2023-08-12T09:57:04;6.90;;;3.92;;
28481;SDS011;15703;49.588;6.260;2023-08-12T09:59:33;9.02;;;4.95;;
28481;SDS011;15703;49.588;6.260;2023-08-12T10:01:56;7.85;;;4.95;;
28481;SDS011;15703;49.588;6.260;2023-08-12T10:04:21;6.05;;;5.00;;
28481;SDS011;15703;49.588;6.260;2023-08-12T10:06:45;4.63;;;4.13;;
28481;SDS011;15703;49.588;6.260;2023-08-12T10:09:09;4.93;;;3.88;;
28481;SDS011;15703;49.588;6.260;2023-08-12T10:11:32;7.70;;;4.50;;
28481;SDS011;15703;49.588;6.260;2023-08-12T10:13:55;6.13;;;3.90;;
28481;SDS011;15703;49.588;6.260;2023-08-12T10:16:18;5.70;;;3.90;;
28481;SDS011;15703;49.588;6.260;2023-08-12T10:18:41;4.25;;;3.55;;
28481;SDS011;15703;49.588;6.260;2023-08-12T10:21:04;5.45;;;3.33;;
28481;SDS011;15703;49.588;6.260;2023-08-12T10:23:29;4.80;;;2.63;;
28481;SDS011;15703;49.588;6.260;2023-08-12T10:25:54;5.82;;;2.90;;
28481;SDS011;15703;49.588;6.260;2023-08-12T10:28:18;3.85;;;2.30;;
28481;SDS011;15703;49.588;6.260;2023-08-12T10:30:41;3.22;;;2.45;;
28481;SDS011;15703;49.588;6.260;2023-08-12T10:33:03;4.38;;;2.25;;
28481;SDS011;15703;49.588;6.260;2023-08-12T10:35:48;4.03;;;2.08;;
28481;SDS011;15703;49.588;6.260;2023-08-12T10:38:11;2.63;;;2.10;;
28481;SDS011;15703;49.588;6.260;2023-08-12T10:40:34;2.63;;;1.48;;
28481;SDS011;15703;49.588;6.260;2023-08-12T10:42:56;3.28;;;1.70;;
28481;SDS011;15703;49.588;6.260;2023-08-12T10:45:18;2.58;;;1.70;;
28481;SDS011;15703;49.588;6.260;2023-08-12T10:47:41;2.92;;;1.65;;
28481;SDS011;15703;49.588;6.260;2023-08-12T10:50:05;3.92;;;1.90;;
28481;SDS011;15703;49.588;6.260;2023-08-12T10:52:28;3.72;;;1.77;;
28481;SDS011;15703;49.588;6.260;2023-08-12T10:54:52;1.38;;;1.15;;
28481;SDS011;15703;49.588;6.260;2023-08-12T10:57:14;2.63;;;1.63;;
28481;SDS011;15703;49.588;6.260;2023-08-12T11:02:13;2.83;;;1.48;;
28481;SDS011;15703;49.588;6.260;2023-08-12T11:04:37;5.15;;;2.08;;
28481;SDS011;15703;49.588;6.260;2023-08-12T11:07:00;1.98;;;1.70;;
28481;SDS011;15703;49.588;6.260;2023-08-12T11:09:36;1.67;;;1.40;;
28481;SDS011;15703;49.588;6.260;2023-08-12T11:11:58;4.82;;;2.05;;
28481;SDS011;15703;49.588;6.260;2023-08-12T11:14:21;5.13;;;1.88;;
28481;SDS011;15703;49.588;6.260;2023-08-12T11:16:45;3.53;;;1.80;;
28481;SDS011;15703;49.588;6.260;2023-08-12T11:19:11;3.25;;;1.70;;
28481;SDS011;15703;49.588;6.260;2023-08-12T11:21:35;3.92;;;1.83;;
28481;SDS011;15703;49.588;6.260;2023-08-12T11:23:58;2.03;;;1.55;;
28481;SDS011;15703;49.588;6.260;2023-08-12T11:26:22;3.30;;;1.58;;
28481;SDS011;15703;49.588;6.260;2023-08-12T11:28:46;4.22;;;1.70;;
28481;SDS011;15703;49.588;6.260;2023-08-12T11:31:09;2.75;;;1.60;;
28481;SDS011;15703;49.588;6.260;2023-08-12T11:36:53;2.88;;;1.60;;
28481;SDS011;15703;49.588;6.260;2023-08-12T11:39:16;2.92;;;1.60;;
28481;SDS011;15703;49.588;6.260;2023-08-12T11:41:38;2.28;;;1.70;;
28481;SDS011;15703;49.588;6.260;2023-08-12T11:44:00;2.80;;;1.63;;
28481;SDS011;15703;49.588;6.260;2023-08-12T11:46:24;2.88;;;1.75;;
28481;SDS011;15703;49.588;6.260;2023-08-12T11:48:47;6.20;;;2.13;;
28481;SDS011;15703;49.588;6.260;2023-08-12T11:51:13;2.90;;;1.77;;
28481;SDS011;15703;49.588;6.260;2023-08-12T11:53:35;2.35;;;1.55;;
28481;SDS011;15703;49.588;6.260;2023-08-12T11:55:59;2.90;;;1.70;;
28481;SDS011;15703;49.588;6.260;2023-08-12T11:58:21;3.30;;;1.90;;
28481;SDS011;15703;49.588;6.260;2023-08-12T12:00:48;2.75;;;1.80;;
28481;SDS011;15703;49.588;6.260;2023-08-12T12:03:10;3.63;;;1.65;;
28481;SDS011;15703;49.588;6.260;2023-08-12T12:05:33;2.65;;;1.90;;
28481;SDS011;15703;49.588;6.260;2023-08-12T12:08:04;4.63;;;1.80;;
28481;SDS011;15703;49.588;6.260;2023-08-12T12:10:30;2.03;;;1.50;;
28481;SDS011;15703;49.588;6.260;2023-08-12T12:12:56;4.82;;;2.10;;
28481;SDS011;15703;49.588;6.260;2023-08-12T12:15:18;2.50;;;1.67;;
28481;SDS011;15703;49.588;6.260;2023-08-12T12:17:40;3.15;;;1.40;;
28481;SDS011;15703;49.588;6.260;2023-08-12T12:20:03;1.90;;;1.50;;
28481;SDS011;15703;49.588;6.260;2023-08-12T12:22:30;2.42;;;1.23;;
28481;SDS011;15703;49.588;6.260;2023-08-12T12:24:54;3.60;;;1.48;;
28481;SDS011;15703;49.588;6.260;2023-08-12T12:27:16;2.78;;;1.40;;
28481;SDS011;15703;49.588;6.260;2023-08-12T12:29:39;4.57;;;1.75;;
28481;SDS011;15703;49.588;6.260;2023-08-12T12:32:01;3.63;;;1.60;;
28481;SDS011;15703;49.588;6.260;2023-08-12T12:34:23;1.65;;;1.27;;
28481;SDS011;15703;49.588;6.260;2023-08-12T12:36:46;3.72;;;1.70;;
28481;SDS011;15703;49.588;6.260;2023-08-12T12:39:08;2.58;;;1.70;;
28481;SDS011;15703;49.588;6.260;2023-08-12T12:41:30;2.25;;;1.67;;
28481;SDS011;15703;49.588;6.260;2023-08-12T12:43:54;3.60;;;1.63;;
28481;SDS011;15703;49.588;6.260;2023-08-12T12:46:16;1.60;;;1.13;;
28481;SDS011;15703;49.588;6.260;2023-08-12T12:48:38;3.92;;;1.52;;
28481;SDS011;15703;49.588;6.260;2023-08-12T12:51:02;4.07;;;1.85;;
28481;SDS011;15703;49.588;6.260;2023-08-12T12:53:24;3.67;;;1.50;;
28481;SDS011;15703;49.588;6.260;2023-08-12T12:55:46;4.60;;;1.40;;
28481;SDS011;15703;49.588;6.260;2023-08-12T12:58:09;3.15;;;1.45;;
28481;SDS011;15703;49.588;6.260;2023-08-12T13:00:33;6.95;;;1.60;;
28481;SDS011;15703;49.588;6.260;2023-08-12T13:02:55;3.20;;;1.52;;
28481;SDS011;15703;49.588;6.260;2023-08-12T13:05:17;1.38;;;1.20;;
28481;SDS011;15703;49.588;6.260;2023-08-12T13:07:39;2.92;;;1.50;;
28481;SDS011;15703;49.588;6.260;2023-08-12T13:10:02;4.05;;;1.33;;
28481;SDS011;15703;49.588;6.260;2023-08-12T13:12:24;3.50;;;1.80;;
28481;SDS011;15703;49.588;6.260;2023-08-12T13:14:46;3.85;;;1.73;;
28481;SDS011;15703;49.588;6.260;2023-08-12T13:17:09;3.22;;;1.45;;
28481;SDS011;15703;49.588;6.260;2023-08-12T13:19:31;2.17;;;1.27;;
28481;SDS011;15703;49.588;6.260;2023-08-12T13:21:53;6.57;;;1.80;;
28481;SDS011;15703;49.588;6.260;2023-08-12T13:24:15;3.25;;;1.70;;
28481;SDS011;15703;49.588;6.260;2023-08-12T13:26:38;1.90;;;1.42;;
28481;SDS011;15703;49.588;6.260;2023-08-12T13:29:00;2.20;;;1.65;;
28481;SDS011;15703;49.588;6.260;2023-08-12T13:31:23;3.08;;;1.65;;
28481;SDS011;15703;49.588;6.260;2023-08-12T13:33:46;2.53;;;1.77;;
28481;SDS011;15703;49.588;6.260;2023-08-12T13:36:08;4.10;;;1.92;;
28481;SDS011;15703;49.588;6.260;2023-08-12T13:38:31;2.05;;;1.58;;
28481;SDS011;15703;49.588;6.260;2023-08-12T13:40:53;3.67;;;1.70;;
28481;SDS011;15703;49.588;6.260;2023-08-12T13:43:15;2.90;;;1.70;;
28481;SDS011;15703;49.588;6.260;2023-08-12T13:45:38;2.40;;;1.80;;
28481;SDS011;15703;49.588;6.260;2023-08-12T13:48:00;2.88;;;1.77;;
28481;SDS011;15703;49.588;6.260;2023-08-12T13:50:22;1.88;;;1.50;;
28481;SDS011;15703;49.588;6.260;2023-08-12T13:52:45;3.65;;;1.95;;
28481;SDS011;15703;49.588;6.260;2023-08-12T13:55:08;2.97;;;1.50;;
28481;SDS011;15703;49.588;6.260;2023-08-12T13:57:30;3.53;;;1.67;;
28481;SDS011;15703;49.588;6.260;2023-08-12T13:59:53;3.08;;;1.88;;
28481;SDS011;15703;49.588;6.260;2023-08-12T14:02:15;3.13;;;1.70;;
28481;SDS011;15703;49.588;6.260;2023-08-12T14:04:37;3.60;;;1.67;;
28481;SDS011;15703;49.588;6.260;2023-08-12T14:06:59;3.28;;;1.88;;
28481;SDS011;15703;49.588;6.260;2023-08-12T14:09:22;3.90;;;2.03;;
28481;SDS011;15703;49.588;6.260;2023-08-12T14:11:44;3.28;;;1.80;;
28481;SDS011;15703;49.588;6.260;2023-08-12T14:14:07;3.58;;;1.98;;
28481;SDS011;15703;49.588;6.260;2023-08-12T14:16:29;3.92;;;1.90;;
28481;SDS011;15703;49.588;6.260;2023-08-12T14:18:51;3.63;;;2.00;;
28481;SDS011;15703;49.588;6.260;2023-08-12T14:21:14;3.60;;;1.77;;
28481;SDS011;15703;49.588;6.260;2023-08-12T14:23:36;1.88;;;1.52;;
28481;SDS011;15703;49.588;6.260;2023-08-12T14:25:59;2.22;;;1.85;;
28481;SDS011;15703;49.588;6.260;2023-08-12T14:28:21;1.67;;;1.58;;
28481;SDS011;15703;49.588;6.260;2023-08-12T14:30:43;3.60;;;2.25;;
28481;SDS011;15703;49.588;6.260;2023-08-12T14:33:05;3.15;;;2.38;;